createdAt,value
2022-12-03T08:21:35.612Z,98.81
2022-12-03T08:24:32.224Z,98.42
2022-12-03T08:27:16.128Z,98.29
2022-12-03T08:29:50.831Z,98.31
2022-12-03T08:32:25.537Z,97.84
2022-12-03T08:35:02.136Z,97.83
2022-12-03T08:37:37.783Z,97.87
2022-12-03T08:40:25.036Z,98.39
2022-12-03T08:42:59.152Z,98.68
2022-12-03T08:45:41.981Z,98.81
2022-12-03T08:48:47.056Z,98.62
2022-12-03T08:51:25.685Z,98.73
2022-12-03T08:54:05.684Z,98.60
2022-12-03T08:56:40.419Z,98.50
2022-12-03T08:59:26.881Z,98.47
2022-12-03T09:02:01.336Z,100.00
2022-12-03T09:04:39.932Z,100.00
2022-12-03T09:07:14.317Z,100.00
2022-12-03T09:09:49.984Z,100.00
2022-12-03T09:12:24.319Z,99.17
2022-12-03T09:14:58.326Z,98.97
2022-12-03T09:17:33.263Z,100.00
2022-12-03T09:22:43.332Z,100.00
2022-12-03T09:25:18.153Z,97.88
2022-12-03T09:27:52.342Z,96.48
2022-12-03T09:30:26.805Z,95.75
2022-12-03T09:33:01.634Z,95.97
2022-12-03T09:35:36.006Z,97.18
2022-12-03T09:38:12.403Z,96.36
2022-12-03T09:40:47.956Z,97.13
2022-12-03T09:43:22.584Z,97.46
2022-12-03T09:45:57.006Z,97.77
2022-12-03T09:48:31.239Z,97.71
2022-12-03T09:51:06.182Z,97.75
2022-12-03T09:53:41.805Z,97.69
2022-12-03T09:56:21.530Z,98.02
2022-12-03T09:58:55.846Z,97.94
2022-12-03T10:01:30.794Z,98.12
2022-12-03T10:04:05.333Z,98.47
2022-12-03T10:07:14.359Z,97.92
